Time;durP1;ratioP1;P1;durP2;ratioP2;P2;SDS_P1;SDS_P2;PMS_P1;PMS_P2;Temp;Humidity;BMP_temperature;BMP_pressure;BME280_temperature;BME280_humidity;BME280_pressure;Samples;Min_cycle;Max_cycle;Signal;HPM_P1;HPM_P2
2023/12/01 00:01:44;;;;;;;29.57;16.23;;;;;;;;;;4376003;32;318274;-78
2023/12/01 00:04:11;;;;;;;25.90;14.60;;;;;;;;;;4386211;32;318314;-81
2023/12/01 00:06:39;;;;;;;26.83;15.00;;;;;;;;;;4377051;32;318446;-77
2023/12/01 00:09:06;;;;;;;20.97;13.47;;;;;;;;;;4386209;32;318674;-82
2023/12/01 00:11:33;;;;;;;21.00;12.20;;;;;;;;;;4385934;32;317810;-81
2023/12/01 00:14:00;;;;;;;19.83;11.57;;;;;;;;;;4378336;32;318921;-79
2023/12/01 00:16:26;;;;;;;19.50;11.30;;;;;;;;;;4389399;32;317882;-79
2023/12/01 00:18:53;;;;;;;14.63;8.70;;;;;;;;;;4379354;32;318484;-79
2023/12/01 00:21:21;;;;;;;17.13;9.43;;;;;;;;;;4389473;32;317647;-79
2023/12/01 00:23:50;;;;;;;17.83;10.50;;;;;;;;;;4378086;32;317458;-78
2023/12/01 00:26:16;;;;;;;23.23;11.53;;;;;;;;;;4389305;32;318402;-78
2023/12/01 00:28:43;;;;;;;20.93;11.13;;;;;;;;;;4379290;32;319199;-79
2023/12/01 00:31:10;;;;;;;25.03;12.17;;;;;;;;;;4389287;32;317620;-81
2023/12/01 00:33:37;;;;;;;27.93;11.67;;;;;;;;;;4379389;32;318835;-80
2023/12/01 00:36:05;;;;;;;34.60;11.63;;;;;;;;;;4389183;32;317963;-80
2023/12/01 00:38:32;;;;;;;21.23;11.67;;;;;;;;;;4388137;32;318511;-78
2023/12/01 00:41:01;;;;;;;15.47;10.13;;;;;;;;;;4379204;32;318499;-78
2023/12/01 00:43:36;;;;;;;20.90;10.77;;;;;;;;;;4389262;32;318388;-78
2023/12/01 00:46:04;;;;;;;21.67;9.43;;;;;;;;;;4376290;32;417395;-78
2023/12/01 00:48:31;;;;;;;19.03;10.30;;;;;;;;;;4389462;32;316946;-79
2023/12/01 00:50:58;;;;;;;18.60;11.07;;;;;;;;;;4379126;32;318136;-80
2023/12/01 00:53:25;;;;;;;20.50;10.60;;;;;;;;;;4389026;32;318303;-78
2023/12/01 00:55:52;;;;;;;18.93;9.03;;;;;;;;;;4377237;32;324648;-77
2023/12/01 00:58:20;;;;;;;14.67;8.90;;;;;;;;;;4388817;32;317354;-81
2023/12/01 01:00:47;;;;;;;16.47;10.53;;;;;;;;;;4376420;32;317602;-78
2023/12/01 01:03:14;;;;;;;36.07;16.33;;;;;;;;;;4387594;32;318371;-78
2023/12/01 01:05:41;;;;;;;24.70;11.30;;;;;;;;;;4377618;32;318673;-79
2023/12/01 01:08:08;;;;;;;21.13;10.47;;;;;;;;;;4387824;32;319527;-80
2023/12/01 01:10:35;;;;;;;16.77;8.50;;;;;;;;;;4383012;32;318293;-73
2023/12/01 01:13:22;;;;;;;22.10;9.77;;;;;;;;;;4387909;32;317501;-78
2023/12/01 01:15:50;;;;;;;17.07;10.50;;;;;;;;;;4378415;32;317583;-79
2023/12/01 01:18:16;;;;;;;22.80;10.13;;;;;;;;;;4388822;32;318335;-78
2023/12/01 01:20:43;;;;;;;19.63;10.23;;;;;;;;;;4378332;32;318676;-79
2023/12/01 01:23:10;;;;;;;17.80;10.17;;;;;;;;;;4388588;32;318976;-78
2023/12/01 01:25:37;;;;;;;22.03;10.87;;;;;;;;;;4378127;32;319204;-78
2023/12/01 01:28:04;;;;;;;22.10;10.73;;;;;;;;;;4387633;32;318525;-77
2023/12/01 01:30:33;;;;;;;16.90;9.03;;;;;;;;;;4388335;32;318729;-77
2023/12/01 01:33:00;;;;;;;18.20;8.37;;;;;;;;;;4377687;32;343613;-78
2023/12/01 01:35:27;;;;;;;19.53;9.27;;;;;;;;;;4388562;32;317462;-81
2023/12/01 01:37:53;;;;;;;16.97;7.93;;;;;;;;;;4378493;32;317302;-80
2023/12/01 01:40:21;;;;;;;15.03;7.67;;;;;;;;;;4388451;32;317396;-79
2023/12/01 01:42:48;;;;;;;13.57;6.40;;;;;;;;;;4376772;32;322721;-79
2023/12/01 01:45:15;;;;;;;13.83;6.07;;;;;;;;;;4388252;32;317186;-81
2023/12/01 01:47:43;;;;;;;10.83;6.73;;;;;;;;;;4378374;32;317684;-82
2023/12/01 01:50:10;;;;;;;15.60;7.40;;;;;;;;;;4387140;32;317529;-78
2023/12/01 01:52:40;;;;;;;15.93;6.63;;;;;;;;;;4377362;32;317012;-79
2023/12/01 01:55:09;;;;;;;12.97;7.60;;;;;;;;;;4387160;32;317485;-80
2023/12/01 01:57:38;;;;;;;12.10;6.83;;;;;;;;;;4376305;32;380737;-76
2023/12/01 02:00:07;;;;;;;12.67;6.90;;;;;;;;;;4388015;32;317217;-78
2023/12/01 02:02:36;;;;;;;11.43;6.50;;;;;;;;;;4386779;32;317371;-78
2023/12/01 02:05:12;;;;;;;14.40;7.93;;;;;;;;;;4373950;32;416512;-81
2023/12/01 02:07:40;;;;;;;12.67;7.47;;;;;;;;;;4377779;32;317175;-80
2023/12/01 02:10:15;;;;;;;16.67;9.07;;;;;;;;;;4386583;32;317468;-80
2023/12/01 02:12:45;;;;;;;15.90;8.10;;;;;;;;;;4377982;32;317450;-78
2023/12/01 02:15:13;;;;;;;15.13;7.70;;;;;;;;;;4387883;32;317319;-78
2023/12/01 02:17:40;;;;;;;15.30;8.63;;;;;;;;;;4377485;32;317186;-78
2023/12/01 02:20:14;;;;;;;20.87;9.67;;;;;;;;;;4387764;32;317368;-78
2023/12/01 02:22:45;;;;;;;16.43;9.07;;;;;;;;;;4377464;32;317256;-78
2023/12/01 02:25:12;;;;;;;22.77;10.97;;;;;;;;;;4387654;32;317380;-79
2023/12/01 02:27:39;;;;;;;20.10;8.83;;;;;;;;;;4377680;32;317957;-78
2023/12/01 02:30:07;;;;;;;20.70;8.93;;;;;;;;;;4387647;32;317329;-77
2023/12/01 02:32:34;;;;;;;15.63;9.03;;;;;;;;;;4387542;32;316481;-78
2023/12/01 02:35:01;;;;;;;16.27;9.07;;;;;;;;;;4373298;32;418322;-78
2023/12/01 02:37:28;;;;;;;22.53;9.67;;;;;;;;;;4386955;32;317297;-78
2023/12/01 02:39:57;;;;;;;15.37;8.97;;;;;;;;;;4377249;32;317239;-77
2023/12/01 02:42:23;;;;;;;20.67;8.20;;;;;;;;;;4387429;32;316508;-77
2023/12/01 02:44:50;;;;;;;16.57;9.30;;;;;;;;;;4377036;32;317265;-78
2023/12/01 02:47:17;;;;;;;14.27;9.53;;;;;;;;;;4387343;32;317287;-77
2023/12/01 02:49:44;;;;;;;15.10;8.20;;;;;;;;;;4374963;32;317408;-80
2023/12/01 02:52:11;;;;;;;16.33;8.20;;;;;;;;;;4385223;32;317363;-78
2023/12/01 02:54:38;;;;;;;16.07;8.20;;;;;;;;;;4375816;32;317359;-79
2023/12/01 02:57:06;;;;;;;16.80;8.03;;;;;;;;;;4386163;32;317283;-78
2023/12/01 02:59:34;;;;;;;12.20;8.43;;;;;;;;;;4386045;32;317206;-77
2023/12/01 03:02:02;;;;;;;15.90;8.47;;;;;;;;;;4352410;32;416504;-79
2023/12/01 03:04:29;;;;;;;14.37;7.87;;;;;;;;;;4387196;32;317287;-78
2023/12/01 03:06:56;;;;;;;15.90;8.63;;;;;;;;;;4376284;32;317144;-78
2023/12/01 03:09:23;;;;;;;16.60;8.77;;;;;;;;;;4387082;32;317403;-77
2023/12/01 03:11:50;;;;;;;13.67;7.33;;;;;;;;;;4376955;32;317263;-78
2023/12/01 03:14:19;;;;;;;15.40;8.63;;;;;;;;;;4385196;32;317595;-78
2023/12/01 03:16:46;;;;;;;13.40;8.37;;;;;;;;;;4375835;32;317352;-77
2023/12/01 03:19:13;;;;;;;15.50;8.20;;;;;;;;;;4385927;32;317227;-79
2023/12/01 03:21:40;;;;;;;13.47;7.67;;;;;;;;;;4376199;32;335555;-82
2023/12/01 03:24:09;;;;;;;13.33;8.10;;;;;;;;;;4387195;32;317447;-79
2023/12/01 03:26:36;;;;;;;18.53;8.77;;;;;;;;;;4375067;32;317271;-79
2023/12/01 03:29:03;;;;;;;11.37;8.20;;;;;;;;;;4373010;32;317236;-78
2023/12/01 03:31:31;;;;;;;15.07;8.27;;;;;;;;;;4376372;32;317219;-82
2023/12/01 03:33:59;;;;;;;16.93;9.27;;;;;;;;;;4386622;32;317262;-79
2023/12/01 03:36:26;;;;;;;36.40;23.63;;;;;;;;;;4374914;32;317345;-81
2023/12/01 03:38:52;;;;;;;24.20;13.70;;;;;;;;;;4385613;32;318279;-80
2023/12/01 03:41:19;;;;;;;21.13;12.33;;;;;;;;;;4374476;32;318296;-76
2023/12/01 03:43:46;;;;;;;18.63;11.53;;;;;;;;;;4386470;32;331788;-80
2023/12/01 03:46:13;;;;;;;20.23;11.07;;;;;;;;;;4386653;32;317502;-78
2023/12/01 03:48:42;;;;;;;18.90;9.87;;;;;;;;;;4376424;32;417746;-79
2023/12/01 03:51:09;;;;;;;17.10;8.37;;;;;;;;;;4388719;32;316674;-78
2023/12/01 03:53:37;;;;;;;17.73;7.50;;;;;;;;;;4378315;32;323767;-78
2023/12/01 03:56:04;;;;;;;11.17;7.23;;;;;;;;;;4388563;32;317136;-78
2023/12/01 03:58:31;;;;;;;14.30;7.07;;;;;;;;;;4379528;32;317387;-79
2023/12/01 04:00:58;;;;;;;13.87;7.97;;;;;;;;;;4381117;32;317310;-78
2023/12/01 04:03:25;;;;;;;18.17;8.77;;;;;;;;;;4379233;32;317390;-78
2023/12/01 04:05:53;;;;;;;14.63;8.50;;;;;;;;;;4389994;32;317325;-78
2023/12/01 04:08:21;;;;;;;10.03;7.40;;;;;;;;;;4377817;32;345981;-77
2023/12/01 04:10:47;;;;;;;20.73;10.43;;;;;;;;;;4388349;32;317519;-76
2023/12/01 04:13:15;;;;;;;17.53;9.43;;;;;;;;;;4389780;32;318334;-79
2023/12/01 04:15:43;;;;;;;17.07;9.07;;;;;;;;;;4376778;32;416762;-78
2023/12/01 04:18:10;;;;;;;16.90;10.60;;;;;;;;;;4390070;32;317468;-81
2023/12/01 04:20:38;;;;;;;19.20;11.07;;;;;;;;;;4379565;32;318501;-78
2023/12/01 04:23:09;;;;;;;16.17;10.83;;;;;;;;;;4389648;32;317921;-77
2023/12/01 04:25:37;;;;;;;25.87;11.10;;;;;;;;;;4378177;32;318519;-81
2023/12/01 04:28:05;;;;;;;17.77;10.50;;;;;;;;;;4389636;32;318474;-77
2023/12/01 04:30:33;;;;;;;31.97;13.27;;;;;;;;;;4379204;32;318169;-78
2023/12/01 04:33:00;;;;;;;23.63;11.27;;;;;;;;;;4388130;32;318434;-79
2023/12/01 04:35:29;;;;;;;23.20;13.30;;;;;;;;;;4378740;32;318209;-78
2023/12/01 04:37:57;;;;;;;25.87;13.77;;;;;;;;;;4389190;32;318316;-80
2023/12/01 04:40:27;;;;;;;25.00;13.03;;;;;;;;;;4376543;32;357458;-80
2023/12/01 04:42:54;;;;;;;25.17;13.90;;;;;;;;;;4387677;32;337272;-79
2023/12/01 04:45:24;;;;;;;29.30;14.47;;;;;;;;;;4377901;32;346408;-78
2023/12/01 04:47:52;;;;;;;34.30;13.87;;;;;;;;;;4389075;32;318656;-78
2023/12/01 04:50:20;;;;;;;29.17;13.40;;;;;;;;;;4378011;32;318449;-78
2023/12/01 04:52:49;;;;;;;27.13;13.60;;;;;;;;;;4388735;32;318549;-77
2023/12/01 04:55:16;;;;;;;21.93;13.17;;;;;;;;;;4376095;32;356602;-80
2023/12/01 04:57:46;;;;;;;21.10;13.60;;;;;;;;;;4388698;32;318322;-81
2023/12/01 05:00:21;;;;;;;29.60;13.73;;;;;;;;;;4388348;32;318604;-79
2023/12/01 05:02:49;;;;;;;17.87;11.07;;;;;;;;;;4376442;32;417373;-80
2023/12/01 05:05:17;;;;;;;23.53;13.07;;;;;;;;;;4377957;32;348520;-78
2023/12/01 05:07:45;;;;;;;18.73;12.10;;;;;;;;;;4389690;32;318487;-77
2023/12/01 05:10:15;;;;;;;20.23;12.83;;;;;;;;;;4388479;32;318624;-78
2023/12/01 05:12:45;;;;;;;24.93;15.20;;;;;;;;;;4377181;32;417685;-81
2023/12/01 05:15:16;;;;;;;28.27;15.43;;;;;;;;;;4388251;32;318456;-78
2023/12/01 05:17:47;;;;;;;39.73;18.37;;;;;;;;;;4376873;32;417920;-77
2023/12/01 05:20:18;;;;;;;21.73;13.93;;;;;;;;;;4389001;32;317847;-77
2023/12/01 05:22:45;;;;;;;25.80;16.17;;;;;;;;;;4368735;32;417539;-78
2023/12/01 05:25:14;;;;;;;37.30;20.43;;;;;;;;;;4387279;32;317874;-79
2023/12/01 05:27:45;;;;;;;58.07;34.00;;;;;;;;;;4375414;32;417249;-79
2023/12/01 05:30:13;;;;;;;37.07;22.43;;;;;;;;;;4386119;32;318253;-77
2023/12/01 05:32:42;;;;;;;32.13;19.93;;;;;;;;;;4378182;32;318537;-82
2023/12/01 05:35:12;;;;;;;30.73;19.53;;;;;;;;;;4386941;32;318630;-79
2023/12/01 05:37:40;;;;;;;30.17;18.03;;;;;;;;;;4378364;32;318417;-78
2023/12/01 05:40:09;;;;;;;34.93;20.03;;;;;;;;;;4386525;32;317891;-78
2023/12/01 05:42:38;;;;;;;31.57;17.40;;;;;;;;;;4377846;32;318838;-80
2023/12/01 05:45:11;;;;;;;52.90;28.90;;;;;;;;;;4386135;32;331547;-75
2023/12/01 05:47:42;;;;;;;37.13;19.13;;;;;;;;;;4376396;32;318353;-74
2023/12/01 05:50:13;;;;;;;32.60;15.40;;;;;;;;;;4386472;32;318558;-71
2023/12/01 05:52:42;;;;;;;31.00;16.73;;;;;;;;;;4374860;32;417278;-73
2023/12/01 05:55:14;;;;;;;24.40;13.80;;;;;;;;;;4386342;32;319213;-74
2023/12/01 05:57:43;;;;;;;15.43;11.90;;;;;;;;;;4374608;32;417519;-75
2023/12/01 06:00:15;;;;;;;21.83;12.20;;;;;;;;;;4386336;32;318576;-73
2023/12/01 06:02:43;;;;;;;19.87;13.10;;;;;;;;;;4373288;32;418654;-73
2023/12/01 06:05:11;;;;;;;23.07;12.47;;;;;;;;;;4387505;32;318475;-70
2023/12/01 06:07:38;;;;;;;19.37;13.77;;;;;;;;;;4376135;32;318498;-71
2023/12/01 06:10:07;;;;;;;16.40;10.90;;;;;;;;;;4387192;32;318411;-74
2023/12/01 06:12:34;;;;;;;23.83;12.97;;;;;;;;;;4375601;32;318693;-73
2023/12/01 06:15:01;;;;;;;23.33;11.60;;;;;;;;;;4386059;32;318367;-74
2023/12/01 06:17:30;;;;;;;32.57;14.17;;;;;;;;;;4375986;32;353088;-74
2023/12/01 06:19:57;;;;;;;35.20;17.83;;;;;;;;;;4386994;32;318931;-73
2023/12/01 06:22:24;;;;;;;34.70;18.27;;;;;;;;;;4376029;32;319018;-72
2023/12/01 06:24:51;;;;;;;36.60;20.90;;;;;;;;;;4387313;32;317854;-73
2023/12/01 06:27:18;;;;;;;34.57;20.80;;;;;;;;;;4377283;32;318892;-71
2023/12/01 06:29:46;;;;;;;38.63;20.97;;;;;;;;;;4387267;32;318771;-73
2023/12/01 06:32:13;;;;;;;37.90;24.00;;;;;;;;;;4385298;32;318301;-72
2023/12/01 06:34:42;;;;;;;41.37;23.97;;;;;;;;;;4373649;32;419062;-71
2023/12/01 06:37:09;;;;;;;42.07;22.60;;;;;;;;;;4365719;32;318657;-72
2023/12/01 06:39:36;;;;;;;42.43;25.00;;;;;;;;;;4376614;32;318652;-74
2023/12/01 06:42:04;;;;;;;45.50;30.83;;;;;;;;;;4386877;32;318720;-71
2023/12/01 06:44:34;;;;;;;46.60;27.43;;;;;;;;;;4376467;32;318801;-72
2023/12/01 06:47:01;;;;;;;43.03;26.57;;;;;;;;;;4386610;32;325144;-74
2023/12/01 06:49:28;;;;;;;43.47;25.83;;;;;;;;;;4375640;32;318582;-74
2023/12/01 06:51:58;;;;;;;38.50;22.20;;;;;;;;;;4385420;32;318947;-72
2023/12/01 06:54:27;;;;;;;50.03;26.80;;;;;;;;;;4376627;32;318902;-71
2023/12/01 06:56:55;;;;;;;44.97;26.60;;;;;;;;;;4386599;32;318800;-72
2023/12/01 06:59:22;;;;;;;39.33;25.10;;;;;;;;;;4376547;32;318122;-73
2023/12/01 07:01:49;;;;;;;49.00;31.87;;;;;;;;;;4384207;32;353267;-71
2023/12/01 07:04:16;;;;;;;47.70;27.27;;;;;;;;;;4375443;32;359293;-72
2023/12/01 07:06:46;;;;;;;53.80;26.10;;;;;;;;;;4386824;32;318889;-73
2023/12/01 07:09:17;;;;;;;42.23;27.03;;;;;;;;;;4385355;32;332090;-73
2023/12/01 07:11:46;;;;;;;45.37;26.13;;;;;;;;;;4365316;32;418681;-72
2023/12/01 07:14:13;;;;;;;47.20;25.33;;;;;;;;;;4384721;32;344975;-73
2023/12/01 07:16:41;;;;;;;53.07;32.67;;;;;;;;;;4372296;32;418674;-75
2023/12/01 07:19:09;;;;;;;53.57;28.47;;;;;;;;;;4386398;32;318214;-73
2023/12/01 07:21:36;;;;;;;43.37;27.17;;;;;;;;;;4375888;32;318907;-74
2023/12/01 07:24:04;;;;;;;47.40;26.27;;;;;;;;;;4385483;32;318629;-74
2023/12/01 07:26:33;;;;;;;32.17;22.80;;;;;;;;;;4375001;32;318693;-73
2023/12/01 07:29:04;;;;;;;42.13;25.97;;;;;;;;;;4386568;32;319158;-74
2023/12/01 07:31:31;;;;;;;48.20;29.67;;;;;;;;;;4374730;32;318265;-76
2023/12/01 07:33:58;;;;;;;47.13;27.70;;;;;;;;;;4385125;32;318705;-73
2023/12/01 07:36:25;;;;;;;56.73;33.00;;;;;;;;;;4375836;32;318839;-73
2023/12/01 07:38:52;;;;;;;69.27;41.63;;;;;;;;;;4386277;32;318797;-74
2023/12/01 07:41:19;;;;;;;60.10;35.27;;;;;;;;;;4374893;32;319677;-72
2023/12/01 07:43:47;;;;;;;75.60;41.83;;;;;;;;;;4385531;32;318707;-73
2023/12/01 07:46:17;;;;;;;59.70;33.90;;;;;;;;;;4386246;32;318760;-72
2023/12/01 07:48:44;;;;;;;55.17;32.63;;;;;;;;;;4371202;32;418590;-73
2023/12/01 07:51:11;;;;;;;60.80;34.70;;;;;;;;;;4385158;32;348085;-73
2023/12/01 07:53:41;;;;;;;64.47;39.87;;;;;;;;;;4374410;32;318761;-73
2023/12/01 07:56:10;;;;;;;50.00;31.73;;;;;;;;;;4386078;32;317831;-73
2023/12/01 07:58:37;;;;;;;56.17;31.77;;;;;;;;;;4366958;32;318733;-73
2023/12/01 08:01:06;;;;;;;57.07;30.90;;;;;;;;;;4383980;32;318730;-73
2023/12/01 08:03:33;;;;;;;57.90;35.27;;;;;;;;;;4373526;32;318753;-74
2023/12/01 08:06:00;;;;;;;54.57;34.67;;;;;;;;;;4385085;32;319170;-73
2023/12/01 08:08:27;;;;;;;67.83;41.90;;;;;;;;;;4375928;32;318979;-74
2023/12/01 08:10:54;;;;;;;84.27;52.00;;;;;;;;;;4385953;32;318994;-74
2023/12/01 08:13:24;;;;;;;89.83;51.87;;;;;;;;;;4374338;32;318137;-74
2023/12/01 08:15:51;;;;;;;76.43;43.87;;;;;;;;;;4385765;32;318048;-73
2023/12/01 08:18:19;;;;;;;78.97;47.73;;;;;;;;;;4375828;32;319504;-72
2023/12/01 08:20:46;;;;;;;82.63;47.40;;;;;;;;;;4384985;32;318625;-73
2023/12/01 08:23:13;;;;;;;93.27;52.70;;;;;;;;;;4385154;32;354792;-74
2023/12/01 08:25:40;;;;;;;80.90;43.23;;;;;;;;;;4371584;32;419828;-75
2023/12/01 08:28:07;;;;;;;71.73;43.17;;;;;;;;;;4384960;32;318690;-71
2023/12/01 08:30:34;;;;;;;50.67;31.87;;;;;;;;;;4374248;32;319066;-73
2023/12/01 08:33:01;;;;;;;67.27;36.47;;;;;;;;;;4384520;32;318897;-73
2023/12/01 08:35:29;;;;;;;68.80;37.10;;;;;;;;;;4377567;32;318744;-72
2023/12/01 08:37:56;;;;;;;67.27;38.63;;;;;;;;;;4386862;32;335037;-72
2023/12/01 08:40:23;;;;;;;60.80;37.83;;;;;;;;;;4376690;32;318097;-73
2023/12/01 08:42:52;;;;;;;60.17;37.37;;;;;;;;;;4388364;32;318983;-72
2023/12/01 08:45:19;;;;;;;60.27;36.80;;;;;;;;;;4374306;32;319034;-71
2023/12/01 08:47:46;;;;;;;63.57;39.23;;;;;;;;;;4386252;32;317962;-72
2023/12/01 08:50:13;;;;;;;70.23;44.93;;;;;;;;;;4386858;32;318474;-73
2023/12/01 08:52:43;;;;;;;83.60;46.53;;;;;;;;;;4373954;32;420345;-71
2023/12/01 08:55:11;;;;;;;76.10;48.90;;;;;;;;;;4387107;32;318641;-73
2023/12/01 08:57:38;;;;;;;75.73;47.63;;;;;;;;;;4376798;32;318977;-73
2023/12/01 09:00:06;;;;;;;66.63;43.43;;;;;;;;;;4387833;32;318753;-72
2023/12/01 09:02:33;;;;;;;62.60;37.00;;;;;;;;;;4378001;32;318555;-73
2023/12/01 09:05:00;;;;;;;79.47;44.77;;;;;;;;;;4387153;32;318628;-72
2023/12/01 09:07:27;;;;;;;100.10;53.37;;;;;;;;;;4376730;32;318817;-72
2023/12/01 09:09:55;;;;;;;79.40;51.60;;;;;;;;;;4386510;32;319713;-74
2023/12/01 09:12:22;;;;;;;88.90;52.97;;;;;;;;;;4377023;32;318791;-73
2023/12/01 09:14:50;;;;;;;93.50;54.50;;;;;;;;;;4387906;32;318830;-73
2023/12/01 09:17:16;;;;;;;99.67;59.47;;;;;;;;;;4378078;32;318680;-72
2023/12/01 09:19:43;;;;;;;94.50;57.20;;;;;;;;;;4387359;32;318547;-73
2023/12/01 09:22:10;;;;;;;107.90;63.70;;;;;;;;;;4387975;32;318716;-73
2023/12/01 09:24:37;;;;;;;101.70;58.47;;;;;;;;;;4376438;32;319736;-75
2023/12/01 09:27:06;;;;;;;118.00;66.83;;;;;;;;;;4386331;32;319573;-73
2023/12/01 09:29:33;;;;;;;93.30;57.23;;;;;;;;;;4376425;32;319647;-75
2023/12/01 09:32:00;;;;;;;98.50;59.47;;;;;;;;;;4387954;32;318667;-76
2023/12/01 09:34:27;;;;;;;103.47;65.63;;;;;;;;;;4376846;32;317948;-70
2023/12/01 09:36:54;;;;;;;112.37;68.63;;;;;;;;;;4387674;32;319438;-74
2023/12/01 09:39:21;;;;;;;111.40;72.33;;;;;;;;;;4377136;32;319769;-73
2023/12/01 09:41:50;;;;;;;118.67;68.83;;;;;;;;;;4387315;32;319917;-73
2023/12/01 09:44:19;;;;;;;119.27;68.97;;;;;;;;;;4376235;32;319808;-72
2023/12/01 09:46:49;;;;;;;108.63;66.60;;;;;;;;;;4387030;32;319458;-74
2023/12/01 09:49:17;;;;;;;102.73;64.67;;;;;;;;;;4377069;32;319610;-73
2023/12/01 09:51:44;;;;;;;118.50;68.80;;;;;;;;;;4387320;32;319471;-74
2023/12/01 09:54:11;;;;;;;89.83;62.10;;;;;;;;;;4387546;32;319669;-73
2023/12/01 09:56:38;;;;;;;94.03;52.23;;;;;;;;;;4377398;32;318883;-74
2023/12/01 09:59:06;;;;;;;90.70;53.43;;;;;;;;;;4387547;32;318698;-74
2023/12/01 10:01:36;;;;;;;95.30;59.43;;;;;;;;;;4376930;32;318550;-73
2023/12/01 10:04:03;;;;;;;93.33;51.67;;;;;;;;;;4387564;32;318641;-73
2023/12/01 10:06:29;;;;;;;70.53;42.47;;;;;;;;;;4377030;32;318621;-74
2023/12/01 10:08:56;;;;;;;85.40;49.70;;;;;;;;;;4386705;32;317939;-73
2023/12/01 10:11:25;;;;;;;71.97;49.20;;;;;;;;;;4376397;32;318552;-75
2023/12/01 10:13:52;;;;;;;66.33;41.30;;;;;;;;;;4385925;32;318563;-75
2023/12/01 10:16:20;;;;;;;62.57;37.67;;;;;;;;;;4375690;32;319745;-72
2023/12/01 10:18:59;;;;;;;74.20;37.67;;;;;;;;;;4386662;32;319481;-73
2023/12/01 10:21:43;;;;;;;64.10;35.93;;;;;;;;;;4375111;32;319747;-73
2023/12/01 10:24:20;;;;;;;45.23;29.77;;;;;;;;;;4385772;32;319521;-73
2023/12/01 10:26:48;;;;;;;41.63;25.03;;;;;;;;;;4373323;32;418576;-74
2023/12/01 10:29:29;;;;;;;31.53;21.27;;;;;;;;;;4387067;32;319013;-73
2023/12/01 10:32:01;;;;;;;42.17;21.40;;;;;;;;;;4372922;32;418533;-72
2023/12/01 10:34:29;;;;;;;38.77;21.20;;;;;;;;;;4376305;32;320111;-76
2023/12/01 10:36:57;;;;;;;32.60;20.27;;;;;;;;;;4385506;32;319389;-74
2023/12/01 10:39:27;;;;;;;41.73;19.80;;;;;;;;;;4375259;32;319693;-73
2023/12/01 10:41:55;;;;;;;34.17;22.60;;;;;;;;;;4386394;32;319777;-72
2023/12/01 10:44:25;;;;;;;48.87;24.77;;;;;;;;;;4375044;32;319664;-75
2023/12/01 10:46:52;;;;;;;47.50;25.40;;;;;;;;;;4386316;32;319977;-73
2023/12/01 10:49:20;;;;;;;42.47;27.60;;;;;;;;;;4374952;32;319490;-70
2023/12/01 10:51:52;;;;;;;46.00;24.30;;;;;;;;;;4386422;32;319843;-74
2023/12/01 10:54:23;;;;;;;42.10;26.97;;;;;;;;;;4375224;32;319341;-70
2023/12/01 10:57:01;;;;;;;39.30;25.10;;;;;;;;;;4385766;32;319955;-74
2023/12/01 10:59:29;;;;;;;74.03;43.20;;;;;;;;;;4375981;32;319638;-72
2023/12/01 11:02:00;;;;;;;41.97;26.33;;;;;;;;;;4384996;32;320054;-72
2023/12/01 11:04:29;;;;;;;154.47;78.07;;;;;;;;;;4376197;32;319815;-73
2023/12/01 11:07:29;;;;;;;56.43;30.20;;;;;;;;;;4385624;32;320593;-72
2023/12/01 11:10:09;;;;;;;48.20;27.40;;;;;;;;;;4372025;32;419884;-72
2023/12/01 11:12:48;;;;;;;49.43;28.53;;;;;;;;;;4368400;32;319589;-71
2023/12/01 11:15:19;;;;;;;44.47;31.27;;;;;;;;;;4385513;32;319243;-73
2023/12/01 11:17:46;;;;;;;53.07;31.60;;;;;;;;;;4373420;32;420169;-72
2023/12/01 11:20:38;;;;;;;48.40;31.53;;;;;;;;;;4385153;32;319726;-72
2023/12/01 11:23:24;;;;;;;53.10;36.27;;;;;;;;;;4358199;32;419705;-73
2023/12/01 11:25:56;;;;;;;65.67;43.13;;;;;;;;;;4372177;32;419407;-73
2023/12/01 11:28:28;;;;;;;73.27;48.50;;;;;;;;;;4374182;32;319692;-72
2023/12/01 11:31:05;;;;;;;83.13;55.30;;;;;;;;;;4385948;32;319816;-73
2023/12/01 11:33:38;;;;;;;99.80;61.00;;;;;;;;;;4374499;32;319919;-73
2023/12/01 11:36:29;;;;;;;72.43;42.53;;;;;;;;;;4385315;32;319671;-75
2023/12/01 11:39:29;;;;;;;58.27;31.27;;;;;;;;;;4373271;32;419647;-74
2023/12/01 11:42:11;;;;;;;71.03;35.63;;;;;;;;;;4373204;32;421040;-73
2023/12/01 11:44:40;;;;;;;73.73;41.27;;;;;;;;;;4375918;32;319841;-74
2023/12/01 11:47:08;;;;;;;72.90;43.90;;;;;;;;;;4384765;32;318765;-74
2023/12/01 11:49:38;;;;;;;74.67;46.43;;;;;;;;;;4372934;32;319934;-75
2023/12/01 11:52:07;;;;;;;83.97;50.20;;;;;;;;;;4386395;32;319873;-75
2023/12/01 11:54:36;;;;;;;90.40;51.10;;;;;;;;;;4375180;32;319835;-74
2023/12/01 11:57:06;;;;;;;76.00;51.37;;;;;;;;;;4386075;32;319356;-73
2023/12/01 11:59:33;;;;;;;84.53;48.07;;;;;;;;;;4374765;32;319686;-72
2023/12/01 12:02:02;;;;;;;91.37;53.40;;;;;;;;;;4384944;32;319740;-73
2023/12/01 12:04:29;;;;;;;92.07;55.90;;;;;;;;;;4374739;32;319697;-72
2023/12/01 12:07:00;;;;;;;68.43;39.37;;;;;;;;;;4386004;32;319199;-73
2023/12/01 12:09:30;;;;;;;83.10;54.40;;;;;;;;;;4378185;32;319301;-72
2023/12/01 12:12:01;;;;;;;70.77;43.63;;;;;;;;;;4387973;32;319409;-78
2023/12/01 12:14:29;;;;;;;66.57;43.20;;;;;;;;;;4379710;32;319698;-75
2023/12/01 12:16:57;;;;;;;58.53;35.33;;;;;;;;;;4388014;32;319179;-77
2023/12/01 12:19:24;;;;;;;43.10;25.77;;;;;;;;;;4379111;32;319705;-73
2023/12/01 12:21:51;;;;;;;44.33;24.07;;;;;;;;;;4389372;32;319711;-73
2023/12/01 12:24:18;;;;;;;45.97;27.80;;;;;;;;;;4379181;32;319584;-71
2023/12/01 12:26:45;;;;;;;50.50;28.57;;;;;;;;;;4389057;32;319852;-72
2023/12/01 12:29:13;;;;;;;41.33;23.53;;;;;;;;;;4388963;32;320300;-74
2023/12/01 12:31:42;;;;;;;40.13;20.57;;;;;;;;;;4375868;32;344538;-74
2023/12/01 12:34:10;;;;;;;36.10;22.07;;;;;;;;;;4387824;32;349100;-74
2023/12/01 12:36:38;;;;;;;42.10;23.13;;;;;;;;;;4378669;32;319762;-75
2023/12/01 12:39:07;;;;;;;42.23;24.67;;;;;;;;;;4387794;32;319653;-75
2023/12/01 12:41:37;;;;;;;36.60;22.67;;;;;;;;;;4378410;32;319658;-74
2023/12/01 12:44:06;;;;;;;42.60;24.47;;;;;;;;;;4387975;32;355555;-81
2023/12/01 12:46:36;;;;;;;36.77;24.30;;;;;;;;;;4378902;32;319898;-83
2023/12/01 12:49:04;;;;;;;51.37;26.10;;;;;;;;;;4389263;32;319865;-81
2023/12/01 12:51:32;;;;;;;54.43;28.23;;;;;;;;;;4378614;32;319702;-81
2023/12/01 12:53:59;;;;;;;76.53;42.30;;;;;;;;;;4388028;32;319729;-82
2023/12/01 12:56:26;;;;;;;78.33;39.10;;;;;;;;;;4378547;32;319876;-81
2023/12/01 12:58:56;;;;;;;61.43;39.17;;;;;;;;;;4387981;32;319680;-81
2023/12/01 13:01:25;;;;;;;60.57;35.33;;;;;;;;;;4377739;32;320123;-80
2023/12/01 13:03:54;;;;;;;65.53;39.43;;;;;;;;;;4388618;32;319740;-81
2023/12/01 13:06:21;;;;;;;64.40;39.60;;;;;;;;;;4377512;32;319750;-81
2023/12/01 13:08:48;;;;;;;72.80;42.90;;;;;;;;;;4388953;32;319690;-84
2023/12/01 13:11:15;;;;;;;81.57;47.43;;;;;;;;;;4388590;32;319697;-79
2023/12/01 13:13:43;;;;;;;84.40;45.67;;;;;;;;;;4374016;32;419560;-82
2023/12/01 13:16:11;;;;;;;89.60;47.40;;;;;;;;;;4387045;32;319155;-82
2023/12/01 13:18:40;;;;;;;71.23;42.10;;;;;;;;;;4378849;32;320051;-79
2023/12/01 13:21:09;;;;;;;68.43;40.53;;;;;;;;;;4386803;32;319661;-82
2023/12/01 13:23:38;;;;;;;69.67;40.97;;;;;;;;;;4377214;32;319780;-80
2023/12/01 13:26:06;;;;;;;77.67;44.80;;;;;;;;;;4388411;32;319869;-79
2023/12/01 13:28:33;;;;;;;78.13;44.03;;;;;;;;;;4377510;32;319211;-83
2023/12/01 13:31:02;;;;;;;72.63;40.33;;;;;;;;;;4388198;32;319710;-81
2023/12/01 13:33:31;;;;;;;106.47;50.37;;;;;;;;;;4378348;32;319720;-83
2023/12/01 13:35:58;;;;;;;74.20;44.50;;;;;;;;;;4387119;32;320868;-80
2023/12/01 13:38:26;;;;;;;80.10;44.23;;;;;;;;;;4377221;32;319844;-80
2023/12/01 13:40:53;;;;;;;74.50;41.97;;;;;;;;;;4388439;32;319743;-81
2023/12/01 13:43:20;;;;;;;64.63;38.80;;;;;;;;;;4374693;32;352154;-81
2023/12/01 13:45:47;;;;;;;64.37;38.73;;;;;;;;;;4388043;32;319807;-82
2023/12/01 13:48:14;;;;;;;76.50;44.43;;;;;;;;;;4388166;32;319747;-82
2023/12/01 13:50:41;;;;;;;79.93;47.23;;;;;;;;;;4375062;32;420224;-80
2023/12/01 13:53:08;;;;;;;75.77;47.43;;;;;;;;;;4387976;32;319100;-78
2023/12/01 13:55:37;;;;;;;85.87;49.73;;;;;;;;;;4376602;32;319681;-79
2023/12/01 13:58:04;;;;;;;79.87;50.00;;;;;;;;;;4374536;32;319818;-83
2023/12/01 14:00:31;;;;;;;92.17;50.03;;;;;;;;;;4381145;32;319698;-82
2023/12/01 14:02:58;;;;;;;92.03;59.60;;;;;;;;;;4390900;32;319752;-79
2023/12/01 14:05:27;;;;;;;91.93;59.47;;;;;;;;;;4379487;32;319662;-80
2023/12/01 14:07:54;;;;;;;106.63;69.47;;;;;;;;;;4389282;32;319656;-78
2023/12/01 14:10:21;;;;;;;98.67;63.93;;;;;;;;;;4380926;32;320739;-79
2023/12/01 14:12:49;;;;;;;101.23;60.37;;;;;;;;;;4388775;32;319387;-79
2023/12/01 14:15:16;;;;;;;105.50;67.70;;;;;;;;;;4379139;32;320733;-73